Language selection

Weather shortcuts

Northern Grand Banks: Past 24 Hour Conditions

 

East Chedabucto Bay - 44488

02:00 PM ADT 22 July 2024Buoy position: 45.45N 60.95W
Disclaimer

This table is a summary of hourly weather conditions for the past 24 hours.
Please note that these observations might not always be representative of weather conditions over their associated marine area.

Date / Time
(ADT)
Wind(knots) Wave height(m) Wave period(s) Pressure(kPa) Air tempC) Water tempC)
22 July 2024
14:00 W 9 gusts 11 0.35 5.3 101.5 19 15
13:00 WNW 9 gusts 11 0.38 5.2 101.5 18 14
12:00 WNW 10 gusts 12 0.38 4.1 101.5 17 14
11:00 W 13 gusts 15 0.45 3.3 101.5 17 14
10:00 WNW 10 gusts 11 0.41 3.7 101.5 16 14
9:00 WNW 9 gusts 10 0.39 4.3 101.5 15 13
8:00 NW 12 gusts 15 0.33 5.4 101.4 15 13
7:00 W 10 gusts 12 0.31 5.8 101.4 15 13
6:00 WNW 10 gusts 11 0.33 5.4 101.3 15 14
5:00 WNW 8 gusts 9 0.39 5.2 101.3 14 13
4:00 WNW 10 gusts 12 0.39 4.9 101.3 15 14
3:00 WNW 7 gusts 8 0.40 6.2 101.2 15 14
2:00 NW 7 gusts 8 0.39 5.7 101.2 15 14
1:00 WNW 4 gusts 5 0.41 5.8 101.2 15 14
0:00 W 9 gusts 10 0.43 5.4 101.2 15 15
21 July 2024
23:00 WSW 9 gusts 10 0.41 4.9 101.2 16 15
22:00 WSW 9 gusts 10 0.49 4.5 101.2 15 15
21:00 WSW 13 gusts 17 0.57 3.6 101.1 15 15
20:00 WSW 13 gusts 15 0.61 3.6 101.1 16 15
19:00 W 14 gusts 18 0.66 3.6 101.1 16 15
18:00 SW 17 gusts 22 0.73 3.6 101.0 16 15
17:00 SW 19 gusts 23 0.78 3.6 101.1 17 15
16:00 SW 22 gusts 26 0.75 3.5 101.1 17 15
15:00 WSW 17 gusts 20 0.60 3.7 101.1 17 15
14:00 SW 17 gusts 19 0.57 3.4 101.1 17 15

Zoom-in to make a selection

Map of Atlantic - Newfoundland marine weather areas Banquereau - 44139 East Chedabucto Bay – 44488 West Chedabucto Bay – 44489 Blanc-Sablon Airport Cap Whittle Chevery Natashquan Airport Heath Point Îles de la Madeleine Airport Miscou Island Eskasoni (First Nations) Grand Étang Ingonish Beach North Mountain St.Paul Island J.A. Douglas McCurdy Sydney Airport Charlottetown Airport East Point North Cape Argentia Berry Hill Bonavista Burgeo Cape Race Corner Brook Daniel's Harbour Englee Ferolle Point La Scie Port aux Basques Sagona Island St. Anthony Airport St. John's Int'l Airport St. Lawrence Stephenville Airport Twillingate Winterland Branch Hill Wreckhouse Grates Cove Pool's Island Marticot Island Long Pond Cartwright Airport Mary's Harbour
Legend:
buoy Buoy
land station Land Station

Atlantic - Newfoundland Area

Another Region

Features

New Predicting and Alerting Coastal Flooding Program

Find out about coastal flooding coverage, forecasts and warnings in your region

Date modified: